LiveATC.Net - Listen to live air traffic control over the Internet!

Airport/ARTCC Code
Frequency Search
(e.g., 124.400, 128.75)
Site-wide search
 


Browse Feeds
Top 50 Feeds
Coverage Map
Bad Weather Areas

LiveATC FAQ
Offer LiveATC feed
Contact LiveATC.net
Press Inquiries

LiveATC on iPhone
LiveATC on Android

Windows Phone
Windows 8/10

LiveATC Mobile
(Mobile browser)

ATC Audio Archives
Interesting Recordings

LiveATC Forums

Home Page
About LiveATC.net
Make a Donation
Terms of Use
Privacy Policy

Canadian Air Freqs

AIRMETs/SIGMETs

FAA Airport Status
Nat'l Airspace Status
Arrival Demand Charts


Server Software By:
Icecast.org
Liquidsoap


Current Potentially Bad Weather Airports
(updated every 30 minutes - sorted alphabetically by ICAO code)



This page lists LiveATC.net airport areas that may be interesting to listen to because of challenging flying (weather) conditions. Challenging weather conditions include low ceilings, limited visibility, high or gusty winds, or thunderstorms.

Updated: Mon May 25 17:10:02 UTC 2020
Click on airport name to go to that airport area's feeds.

CYFB CTAF/RDO Iqaluit Airport (Iqaluit, CA-NU)
WX MAP UNAVAILABLENearest METAR:
CYFB 251600Z 15015G20KT 1 1/2SM -SN VV010 00/M01 A2929 RMK SN8 SLP923
ENEV Twr/App/ACC Harstad/Narvik Airport (Evenes, Norway)
WX MAP UNAVAILABLENearest METAR:
ENEV 251650Z AUTO 20006KT 3600 DZ VV018 08/07 Q1029 RMK WIND 1400FT 23019KT
KACK Tower Nantucket Memorial Airport (Nantucket, US-MA)
kackNearest METAR:
KACK 251653Z 11011KT 10SM OVC006 17/13 A3024 RMK AO2 SLP239 T01670133
ZBW Boston Center (ALB22) General Edward Lawrence Logan International Airport (Boston, US-MA)
kbosNearest METAR:
KBOS 251654Z 07007KT 1/2SM R04R/P6000FT BR OVC004 11/10 A3028 RMK AO2 SFC VIS 1 3/4 SLP253 VIS W-N 6 T01110100
KBAZ Tower New Braunfels Municipal Airport (New Braunfels, US-TX)
kbazNearest METAR:
KBAZ 251651Z 35005KT 10SM FEW013 FEW070 23/19 A2982 RMK AO2 LTG DSNT N AND NW RAE07 SLP092 P0001 T02330189
KBCT ATIS Boca Raton Airport (Boca Raton, US-FL)
kbctNearest METAR:
KBCT 251647Z 17010G21KT 170V230 6SM HZ SCT017 SCT025 SCT034 26/23 A2991 RMK LTG DSNT SW.
KBDR Del/Gnd/Twr/App Igor I Sikorsky Memorial Airport (Bridgeport, US-CT)
kbdrNearest METAR:
KBDR 251652Z VRB03KT 10SM BKN003 OVC009 14/13 A3025 RMK AO2 SLP243 T01440133
KBID CTAF Block Island State Airport (Block Island, US-RI)
kbidNearest METAR:
KBID 251656Z AUTO 05006KT 1/4SM -RA FG OVC003 12/12 A3026 RMK AO2 SLP246 P0000 T01170117
KBJI CTAF/ZMP Bemidji Regional Airport (Bemidji, US-MN)
kbjiNearest METAR:
KBJI 251655Z AUTO 33005KT 10SM OVC009 17/14 A2993 RMK AO2 T01730141
MA/NH/RI/CT Area CTAF Fitchburg Municipal Airport (Fitchburg, US-MA)
ksfzNearest METAR:
KSFZ 251656Z AUTO 06004KT 10SM OVC007 15/14 A3027 RMK AO2 SLP196 P0001 T01500139
MA/NH/RI/CT Area CTAF Fitchburg Municipal Airport (Fitchburg, US-MA)
kfitNearest METAR:
KFIT 251652Z AUTO 12004KT 10SM OVC008 13/11 A3028 RMK AO2 SLP254 T01330106
KBTR/KHZR/L38 Del/Gnd/Twr/App/CTAF Baton Rouge Metropolitan Airport - Ryan Field (Baton Rouge, US-LA)
khzrNearest METAR:
KHZR 251637Z AUTO 12013G19KT 10SM SCT038 BKN048 BKN080 29/21 A2988 RMK AO2 LTG DSNT SE THRU W
KBTR/KHZR/L38 Del/Gnd/Twr/App/CTAF Baton Rouge Metropolitan Airport - Ryan Field (Baton Rouge, US-LA)
kbtrNearest METAR:
KBTR 251653Z 08016G19KT 10SM SCT035 BKN047 BKN065 29/22 A2987 RMK AO2 LTG DSNT S-NW SLP113 T02940222
KBVY Tower #1 Beverly Municipal Airport (Beverly, US-MA)
kbvyNearest METAR:
KBVY 251653Z 10005KT 10SM OVC009 14/11 A3026 RMK AO2 SLP243 T01440111
KCFD CTAF/App Coulter Field Airport (Bryan, US-TX)
kcfdNearest METAR:
KCFD 251655Z AUTO 27007KT 10SM OVC007 22/22 A2981 RMK AO2 T02240218
KCRQ Tower Mc Clellan-Palomar Airport (Carlsbad, US-CA)
kcrqNearest METAR:
KCRQ 251653Z VRB05KT 8SM OVC009 18/14 A2990 RMK AO2 CIG 006V012 SLP124 T01830144
KDAL ATIS Dallas Love Field Airport (Dallas, US-TX)
kdalNearest METAR:
KDAL 251657Z 32009KT 1 3/4SM R13L/5000VP6000FT +RA BR SCT007 BKN012 OVC040 19/18 A2982 RMK AO2 OCNL LTGIC CB DSNT NE MOV NW P0003 T01940178 $
KDED/1J6 CTAF/UNICOM DeLand Municipal Airport-Sidney H Taylor Field (DeLand, US-FL)
kdedNearest METAR:
KDED 251655Z AUTO 5SM RA 24/ A2999 RMK AO2 LTG DSNT S P0002
KDTO Gnd/Twr Denton Municipal Airport (Denton, US-TX)
kdtoNearest METAR:
KDTO 251653Z 29007KT 2 1/2SM RA BR FEW007 SCT050 OVC065 20/19 A2982 RMK AO2 SLP092 P0013 T02000189
KFWS Ground/Tower Fort Worth Spinks Airport (Fort Worth, US-TX)
kfwsNearest METAR:
KFWS 251648Z 28004KT 1 1/2SM RA BKN007 BKN019 OVC027 19/18 A2986
KGSO Approach/Departure Piedmont Triad International Airport (Greensboro, US-NC)
kgsoNearest METAR:
KGSO 251654Z 07006KT 1SM R05R/P6000FT -DZ BR OVC003 18/17 A3021 RMK AO2 SFC VIS 2 1/2 DZE25B46 SLP223 P0000 T01780172
KHDC De/Gnd/Twr/App/ZHU Hammond Northshore Regional Airport (Hammond, US-LA)
khdcNearest METAR:
KHDC 251655Z AUTO 14015G22KT 10SM SCT034 SCT050 SCT060 30/21 A2990 RMK AO2 LTG DSNT S AND SW
KHQZ Tower Mesquite Metro Airport (Mesquite, US-TX)
khqzNearest METAR:
KHQZ 251650Z 04005G10KT 1SM +RA BKN005 OVC008 19/19 A2982
KHRO CTAF/ZME/Misc Boone County Airport (Harrison, US-AR)
khroNearest METAR:
KHRO 251653Z AUTO 17012G17KT 10SM SCT035 BKN041 BKN050 26/18 A2992 RMK AO2 LTG DSNT N SLP116 T02560183 $
KHWV CTAF Brookhaven Airport (Shirley, US-NY)
khwvNearest METAR:
KHWV 251656Z AUTO 00000KT 10SM OVC009 18/14 A3024 RMK AO2 SLP238 T01780139 TSNO
KHYI Gnd/Twr/Misc San Marcos Municipal Airport (Austin, US-TX)
khyiNearest METAR:
KHYI 251656Z AUTO 35009G16KT 5SM VCTS BR FEW018 SCT047 BKN070 21/19 A2983 RMK AO2 LTG DSNT W AND NW TSB39 SLP095 T02110194
KINF CTAF Inverness Airport (Inverness, US-FL)
kinfNearest METAR:
KINF 251655Z AUTO 00000KT 4SM RA SCT012 BKN030 OVC045 23/23 A2998 RMK AO2 LTG DSNT S P0006
KINT Ground/Tower Smith Reynolds Airport (Winston Salem, US-NC)
kintNearest METAR:
KINT 251654Z 04005KT 4SM BR OVC005 18/18 A3023 RMK AO2 SLP228 T01830178
KISP (NY Approach) Long Island Mac Arthur Airport (Islip, US-NY)
kispNearest METAR:
KISP 251656Z 02004KT 10SM OVC009 17/14 A3023 RMK AO2 SLP237 T01720144
KJQF Ground/Tower Concord Regional Airport (Concord, US-NC)
kjqfNearest METAR:
KJQF 251650Z 00000KT 5SM BR OVC008 22/19 A3022
KMVY Del/Gnd/Twr Martha's Vineyard Airport (Vineyard Haven, US-MA)
kmvyNearest METAR:
KMVY 251653Z 04007KT 10SM OVC007 17/13 A3024 RMK AO2 SLP239 T01720133
KMYF Del/Gnd/Twr Montgomery Field Airport (San Diego, US-CA)
kmyfNearest METAR:
KMYF 251653Z 00000KT 7SM OVC006 18/14 A2992 RMK AO2 SLP128 T01780144
KNKX Del/Gnd/Twr Miramar Marine Corps Air Station (San Diego, US-CA)
knkxNearest METAR:
KNKX 251632Z 35004KT 9SM OVC005 18/15 A2992 RMK AO2 T01780150
KNTU Gnd/Twr/App/Radar Oceana Naval Air Station (Apollo Soucek Field) (Virginia Beach, US-VA)
kntuNearest METAR:
KNTU 251656Z 36004KT 10SM OVC006 17/14 A3022 RMK AO2 SLP235 T01670144
KOFF Gnd/Twr/App/ZMP Offutt Air Force Base (Omaha, US-NE)
koffNearest METAR:
KOFF 251656Z AUTO 36003KT 10SM -DZ OVC008 19/17 A2989 RMK AO2 DZB22E44DZB51 SLP122 P0000 T01920171 $
KORF Gnd/Twr/App/Radar Norfolk International Airport (Norfolk, US-VA)
korfNearest METAR:
KORF 251651Z 01009KT 10SM OVC008 18/14 A3022 RMK AO2 SLP233 T01780144
FSS (Central MA) Worcester Regional Airport (Worcester, US-MA)
korhNearest METAR:
KORH 251654Z 07004KT 10SM OVC003 13/12 A3026 RMK AO2 SLP251 T01330117
KOXC Ground/Tower Waterbury-Oxford Airport (Oxford, US-CT)
koxcNearest METAR:
KOXC 251651Z 00000KT 3SM -RA BR OVC007 15/14 A3025 RMK AO2 RAB06 SLP257 P0000 T01500144
KPAE Gnd/Twr/App Snohomish County Airport (Paine Field) (Everett, US-WA)
kpaeNearest METAR:
KPAE 251653Z 19009KT 5SM BR OVC008 13/12 A3007 RMK AO2 RAE35 SLP183 P0001 T01280117
KPSM Gnd/Twr/App/GCA Portsmouth International Airport at Pease (Portsmouth, US-NH)
kpsmNearest METAR:
KPSM 251656Z 12005KT 10SM BKN007 OVC009 12/09 A3026 RMK AO2A SLP250 T01210093
KSAT Tower San Antonio International Airport (San Antonio, US-TX)
ksatNearest METAR:
KSAT 251651Z VRB04KT 10SM BKN018 BKN060 OVC250 23/18 A2984 RMK AO2 LTG DSNT N SLP088 T02280178 $
KSEF CTAF Sebring Regional Airport (Sebring, US-FL)
ksefNearest METAR:
KSEF 251655Z AUTO 07012G16KT 10SM BKN009 OVC023 25/23 A2992 RMK AO2 LTG DSNT SW P0001 T02520234
KSGF Ground/Tower Springfield-Branson National Airport (Springfield, US-MO)
ksgfNearest METAR:
KSGF 251652Z 16013KT 4SM RA FEW029 BKN070 OVC095 22/19 A2991 RMK AO2 LTG DSNT SE AND S RAB36 SLP118 P0002 T02220194
KSUX Twr/App/ZMP Sioux Gateway Airport/Col. Bud Day Field (Sioux City, US-IA)
ksuxNearest METAR:
KSUX 251652Z 33008KT 7SM OVC009 18/16 A2990 RMK AO2 CIG 007V011 SLP121 T01780161
KTKI Gnd/Twr Collin County Regional Airport at Mc Kinney (Dallas, US-TX)
ktkiNearest METAR:
KTKI 251653Z 01006KT 10SM -RA BKN006 BKN012 OVC070 20/19 A2982 RMK AO2 LTG DSNT E SLP098 P0002 T02000189 $
LHBP Twr/Info Budapest Ferihegy International Airport (Budapest, Hungary)
WX MAP UNAVAILABLENearest METAR:
LHBP 251647Z 31016KT 290V350 9999 -TSRA SCT048CB 17/06 Q1022 NOSIG
LHPR Info/AFIS Gyor-Per International Airport (Gyor, Hungary)
WX MAP UNAVAILABLENearest METAR:
LHPR 251615Z AUTO 27012KT 9999 FEW034 BKN061 //////CB 16/10 Q1023 TEMPO SHRA TSRA
LRCL Twr/App #1 Cluj-Napoca International Airport (Cluj-Napoca, Romania)
WX MAP UNAVAILABLENearest METAR:
LRCL 251630Z 07008KT 9999 -SHRA BKN040CB BKN058 10/08 Q1022 RETSRA R07/29//95
PASC CTAF/Unicom/AFIS/App Deadhorse Airport (Deadhorse, US-AK)
WX MAP UNAVAILABLENearest METAR:
PASC 251653Z 09009KT 10SM OVC003 M01/M02 A2966 RMK AO2 SLP044 T10061022
RKSG Gnd/Twr/App Pyongtaek-Desiderio AAF Airport (A 511) (Pyeongtaek, Korea, Republic of)
WX MAP UNAVAILABLENearest METAR:
RKSG 251556Z 00000KT 1 1/2SM BR SCT005 13/12 A2987 RMK AO2A SLP118 $
RKRR Incheon Control Incheon International Airport (Incheon, Korea, Republic of)
WX MAP UNAVAILABLENearest METAR:
RKSI 251630Z 33002KT 4200 BR OVC003 13/11 Q1012 NOSIG
SULS Tower Capitan Corbeta C A Curbelo International Airport (Punta del Este, Uruguay)
WX MAP UNAVAILABLENearest METAR:
SULS 251700Z 22028G38KT 9999 3000NW VCSH BKN020 13/11 Q1007
SUMU Twr/App/Radar Carrasco General Cesareo L. Berisso International Airport (Montevideo, Uruguay)
WX MAP UNAVAILABLENearest METAR:
SUMU 251700Z 23020G30KT 9999 BKN023 14/11 Q1010 TEMPO 22025G35KT SHRA
URKK Gnd/Twr/App Pashkovskiy General Airport (Krasnodar, Russia)
WX MAP UNAVAILABLENearest METAR:
URKK 251630Z 05003MPS 9999 -SHRA BKN011 BKN029CB 13/12 Q1018 R05R/290060 TEMPO VRB09G14MPS 3000 -TSRA SCT005 BKN020CB RMK QFE760
URMT Twr/App/Control Stavropol Shpakovskoye Airport (Stavropol, Russia)
WX MAP UNAVAILABLENearest METAR:
URMT 251630Z 35002MPS 9999 SCT040 12/11 Q1017 R07/290150 TEMPO 0300 FG OVC002 RMK QFE723
YPPH Approach Perth International Airport (Perth, AU-WA)
WX MAP UNAVAILABLENearest METAR:
YPPH 251630Z 04004KT 9999 VCSH NSC 09/08 Q1016 INTER 1630/1800 24020G35KT 4000 SHRA SCT020 BKN030